Terminal Aerodrome Forecast
Issued by NWS

Home | Current Version | Previous Version | Text Only | Print | Product List | Glossary On
Versions: 1 2 3 4 5 6 7 8 9 10 11 12 13 14 15 16 17 18
000
FTUS43 KFGF 250000 AAA
TAFDVL
TAF AMD
KDVL 250032Z 2501/2524 11016G25KT P6SM BKN035
     FM250200 12010KT P6SM BKN040
     FM251200 18004KT P6SM VCTS BKN050CB
      AMD LTD TO CLD VIS AND WIND=

USA.gov is the U.S. government's official web portal to all federal, state and local government web resources and services.